createdAt,value
2019-01-17T00:00:41.355Z,2.67
2019-01-17T00:01:42.225Z,2.62
2019-01-17T00:02:41.353Z,2.61
2019-01-17T00:03:41.261Z,2.61
2019-01-17T00:04:41.270Z,2.68
2019-01-17T00:05:41.732Z,2.71
2019-01-17T00:06:41.170Z,2.67
2019-01-17T00:07:41.167Z,2.74
2019-01-17T00:08:41.090Z,2.68
2019-01-17T00:09:41.042Z,2.69
2019-01-17T00:10:41.726Z,2.65
2019-01-17T00:11:40.975Z,2.75
2019-01-17T00:12:40.986Z,2.79
2019-01-17T00:13:40.965Z,2.79
2019-01-17T00:14:40.873Z,2.79
2019-01-17T00:15:40.838Z,2.79
2019-01-17T00:16:40.801Z,2.80
2019-01-17T00:17:40.765Z,2.87
2019-01-17T00:18:40.777Z,2.90
2019-01-17T00:19:40.709Z,2.89
2019-01-17T00:20:40.704Z,2.85
2019-01-17T00:21:40.628Z,2.85
2019-01-17T00:22:40.689Z,2.86
2019-01-17T00:23:40.580Z,2.90
2019-01-17T00:24:40.572Z,2.83
2019-01-17T00:25:40.490Z,2.85
2019-01-17T00:26:40.514Z,2.87
2019-01-17T00:27:40.432Z,2.92
2019-01-17T00:28:40.384Z,2.93
2019-01-17T00:29:40.383Z,2.92
2019-01-17T00:30:41.298Z,2.95
2019-01-17T00:31:40.282Z,3.04
2019-01-17T00:32:40.247Z,2.98
2019-01-17T00:33:40.215Z,3.00
2019-01-17T00:34:40.206Z,3.01
2019-01-17T00:35:40.204Z,2.98
2019-01-17T00:36:40.114Z,3.00
2019-01-17T00:37:40.076Z,3.01
2019-01-17T00:38:40.039Z,3.04
2019-01-17T00:39:40.736Z,3.04
2019-01-17T00:40:40.020Z,3.14
2019-01-17T00:41:39.949Z,3.11
2019-01-17T00:42:39.902Z,3.07
2019-01-17T00:43:39.864Z,3.14
2019-01-17T00:44:39.833Z,3.13
2019-01-17T00:45:39.846Z,3.11
2019-01-17T00:46:39.767Z,3.18
2019-01-17T00:47:39.736Z,3.23
2019-01-17T00:48:39.709Z,3.19
2019-01-17T00:49:39.666Z,3.14
2019-01-17T00:50:39.672Z,3.23
2019-01-17T00:51:39.593Z,3.19
2019-01-17T00:52:40.263Z,3.08
2019-01-17T00:53:39.526Z,3.19
2019-01-17T00:54:39.489Z,3.14
2019-01-17T00:55:39.493Z,3.14
2019-01-17T00:56:40.138Z,3.05
2019-01-17T00:57:39.390Z,3.07
2019-01-17T00:58:39.353Z,3.00
2019-01-17T00:59:39.345Z,3.01
2019-01-17T01:00:39.285Z,2.98
2019-01-17T01:01:39.319Z,3.05
2019-01-17T01:02:39.216Z,3.00
2019-01-17T01:03:39.184Z,2.97
2019-01-17T01:04:39.149Z,3.03
2019-01-17T01:05:39.126Z,3.07
2019-01-17T01:06:39.297Z,3.00
2019-01-17T01:07:39.048Z,3.03
2019-01-17T01:08:39.076Z,3.01
2019-01-17T01:09:38.978Z,2.93
2019-01-17T01:10:38.957Z,3.00
2019-01-17T01:11:39.305Z,2.87
2019-01-17T01:12:38.945Z,3.03
2019-01-17T01:13:38.843Z,2.93
2019-01-17T01:14:38.799Z,3.00
2019-01-17T01:15:38.774Z,3.03
2019-01-17T01:16:38.784Z,2.98
2019-01-17T01:17:38.728Z,3.03
2019-01-17T01:18:38.662Z,3.01
2019-01-17T01:19:38.672Z,3.11
2019-01-17T01:20:38.591Z,3.10
2019-01-17T01:21:38.585Z,3.00
2019-01-17T01:22:38.529Z,3.08
2019-01-17T01:23:38.536Z,3.07
2019-01-17T01:24:38.506Z,3.19
2019-01-17T01:25:38.426Z,3.21
2019-01-17T01:26:39.254Z,3.28
2019-01-17T01:27:38.358Z,3.29
2019-01-17T01:28:38.358Z,3.21
2019-01-17T01:29:38.422Z,3.23
2019-01-17T01:30:39.236Z,3.32
2019-01-17T01:31:38.213Z,3.31
2019-01-17T01:32:38.177Z,3.28
2019-01-17T01:33:38.148Z,3.29
2019-01-17T01:34:38.308Z,3.25
2019-01-17T01:35:38.121Z,3.28
2019-01-17T01:36:38.051Z,3.29
2019-01-17T01:37:38.010Z,3.42
2019-01-17T01:38:37.970Z,3.32
2019-01-17T01:39:38.300Z,3.37
2019-01-17T01:40:37.957Z,3.37
2019-01-17T01:41:37.872Z,3.32
2019-01-17T01:42:37.837Z,3.23
2019-01-17T01:43:38.737Z,3.44
2019-01-17T01:44:37.780Z,3.26
2019-01-17T01:45:37.786Z,3.41
2019-01-17T01:46:37.695Z,3.31
2019-01-17T01:47:37.679Z,3.26
2019-01-17T01:48:38.247Z,3.41
2019-01-17T01:49:37.592Z,3.40
2019-01-17T01:50:37.607Z,3.28
2019-01-17T01:51:37.543Z,3.26
2019-01-17T01:52:37.495Z,3.29
2019-01-17T01:53:37.466Z,3.23
2019-01-17T01:54:37.420Z,3.29
2019-01-17T01:55:37.429Z,3.14
2019-01-17T01:56:37.350Z,3.32
2019-01-17T01:57:37.372Z,3.31
2019-01-17T01:58:37.289Z,3.45
2019-01-17T01:59:37.248Z,3.26
2019-01-17T02:00:37.217Z,3.41
2019-01-17T02:01:38.144Z,3.44
2019-01-17T02:02:37.144Z,3.41
2019-01-17T02:03:37.165Z,3.40
2019-01-17T02:04:37.112Z,3.44
2019-01-17T02:05:37.056Z,3.50
2019-01-17T02:06:37.063Z,3.48
2019-01-17T02:07:36.996Z,3.47
2019-01-17T02:08:36.934Z,3.50
2019-01-17T02:09:37.797Z,3.55
2019-01-17T02:10:36.889Z,3.53
2019-01-17T02:11:37.691Z,3.58
2019-01-17T02:12:36.814Z,3.56
2019-01-17T02:13:36.769Z,3.62
2019-01-17T02:14:36.858Z,3.68
2019-01-17T02:15:36.717Z,3.74
2019-01-17T02:16:36.673Z,3.76
2019-01-17T02:17:38.287Z,3.81
2019-01-17T02:18:36.642Z,3.86
2019-01-17T02:19:36.595Z,3.86
2019-01-17T02:20:37.239Z,3.94
2019-01-17T02:21:36.491Z,3.99
2019-01-17T02:22:36.512Z,4.01
2019-01-17T02:23:36.422Z,4.02
2019-01-17T02:24:36.388Z,3.99
2019-01-17T02:25:37.245Z,4.13
2019-01-17T02:26:36.329Z,4.13
2019-01-17T02:27:36.348Z,4.08
2019-01-17T02:28:36.250Z,4.23
2019-01-17T02:29:36.231Z,4.12
2019-01-17T02:30:36.752Z,4.20
2019-01-17T02:31:36.161Z,4.16
2019-01-17T02:32:36.175Z,4.31
2019-01-17T02:33:36.086Z,4.26
2019-01-17T02:34:36.054Z,4.37
2019-01-17T02:35:36.752Z,4.30
2019-01-17T02:36:35.991Z,4.41
2019-01-17T02:37:36.011Z,4.38
2019-01-17T02:38:35.935Z,4.38
2019-01-17T02:39:36.750Z,4.40
2019-01-17T02:40:35.851Z,4.48
2019-01-17T02:41:35.812Z,4.45
2019-01-17T02:42:35.839Z,4.45
2019-01-17T02:43:36.248Z,4.38
2019-01-17T02:44:35.718Z,4.40
2019-01-17T02:45:35.687Z,4.48
2019-01-17T02:46:35.646Z,4.40
2019-01-17T02:47:36.247Z,4.44
2019-01-17T02:48:35.623Z,4.42
2019-01-17T02:49:35.551Z,4.44
2019-01-17T02:50:35.522Z,4.50
2019-01-17T02:51:35.530Z,4.48
2019-01-17T02:52:35.449Z,4.49
2019-01-17T02:53:35.427Z,4.44
2019-01-17T02:54:35.839Z,4.56
2019-01-17T02:55:35.349Z,4.53
2019-01-17T02:56:35.337Z,4.53
2019-01-17T02:57:36.217Z,4.59
2019-01-17T02:58:35.302Z,4.58
2019-01-17T02:59:35.215Z,4.55
2019-01-17T03:00:35.174Z,4.55
2019-01-17T03:01:35.150Z,4.56
2019-01-17T03:02:35.158Z,4.55
2019-01-17T03:03:35.073Z,4.63
2019-01-17T03:04:35.048Z,4.62
2019-01-17T03:05:35.047Z,4.59
2019-01-17T03:06:35.014Z,4.62
2019-01-17T03:07:34.950Z,4.66
2019-01-17T03:08:34.926Z,4.59
2019-01-17T03:09:35.296Z,4.62
2019-01-17T03:10:34.840Z,4.56
2019-01-17T03:11:34.814Z,4.60
2019-01-17T03:12:34.825Z,4.58
2019-01-17T03:13:34.744Z,4.67
2019-01-17T03:14:34.709Z,4.58
2019-01-17T03:15:35.242Z,4.62
2019-01-17T03:16:34.686Z,4.66
2019-01-17T03:17:34.631Z,4.66
2019-01-17T03:18:34.819Z,4.60
2019-01-17T03:19:34.540Z,4.66
2019-01-17T03:20:34.555Z,4.71
2019-01-17T03:21:34.478Z,4.68
2019-01-17T03:22:34.443Z,4.70
2019-01-17T03:23:35.248Z,4.74
2019-01-17T03:24:34.381Z,4.67
2019-01-17T03:25:34.387Z,4.73
2019-01-17T03:26:34.341Z,4.73
2019-01-17T03:27:35.280Z,4.73
2019-01-17T03:28:35.210Z,4.71
2019-01-17T03:29:34.208Z,4.71
2019-01-17T03:30:34.225Z,4.87
2019-01-17T03:31:34.270Z,4.82
2019-01-17T03:32:34.107Z,4.87
2019-01-17T03:33:34.168Z,4.82
2019-01-17T03:34:34.047Z,4.74
2019-01-17T03:35:34.014Z,4.77
2019-01-17T03:36:33.973Z,4.75
2019-01-17T03:37:34.910Z,4.73
2019-01-17T03:38:33.960Z,4.71
2019-01-17T03:39:33.878Z,4.77
2019-01-17T03:40:33.846Z,4.75
2019-01-17T03:41:33.809Z,4.71
2019-01-17T03:42:33.820Z,4.77
2019-01-17T03:43:33.745Z,4.77
2019-01-17T03:44:33.707Z,4.84
2019-01-17T03:45:33.677Z,4.70
2019-01-17T03:46:33.686Z,4.82
2019-01-17T03:47:33.621Z,4.75
2019-01-17T03:48:33.667Z,4.73
2019-01-17T03:49:33.544Z,4.74
2019-01-17T03:50:33.509Z,4.75
2019-01-17T03:51:33.472Z,4.84
2019-01-17T03:52:33.497Z,4.80
2019-01-17T03:53:34.267Z,4.73
2019-01-17T03:54:33.378Z,4.77
2019-01-17T03:55:33.350Z,4.74
2019-01-17T03:56:33.309Z,4.78
2019-01-17T03:57:33.352Z,4.82
2019-01-17T03:58:33.758Z,4.90
2019-01-17T03:59:33.211Z,4.89
2019-01-17T04:00:33.180Z,4.93
2019-01-17T04:01:33.752Z,4.87
2019-01-17T04:02:33.156Z,4.89
2019-01-17T04:03:33.084Z,4.86
2019-01-17T04:04:33.114Z,4.87
2019-01-17T04:05:33.309Z,4.89
2019-01-17T04:06:32.979Z,4.89
2019-01-17T04:07:32.945Z,4.90
2019-01-17T04:08:32.997Z,4.92
2019-01-17T04:09:32.879Z,4.94
2019-01-17T04:10:33.315Z,4.96
2019-01-17T04:11:32.824Z,4.89
2019-01-17T04:12:32.782Z,4.90
2019-01-17T04:13:32.742Z,4.90
2019-01-17T04:14:33.266Z,4.90
2019-01-17T04:15:32.734Z,4.86
2019-01-17T04:16:32.643Z,4.96
2019-01-17T04:17:32.645Z,4.93
2019-01-17T04:18:32.577Z,4.89
2019-01-17T04:19:32.594Z,4.90
2019-01-17T04:20:32.512Z,4.93
2019-01-17T04:21:32.494Z,4.94
2019-01-17T04:22:32.447Z,4.99
2019-01-17T04:23:32.413Z,4.99
2019-01-17T04:24:32.425Z,5.00
2019-01-17T04:25:32.418Z,5.02
2019-01-17T04:26:32.316Z,5.04
2019-01-17T04:27:32.286Z,5.05
2019-01-17T04:28:32.249Z,5.04
2019-01-17T04:29:32.265Z,5.12
2019-01-17T04:30:32.234Z,5.14
2019-01-17T04:31:32.148Z,5.08
2019-01-17T04:32:32.113Z,5.10
2019-01-17T04:33:32.087Z,5.18
2019-01-17T04:34:32.054Z,5.20
2019-01-17T04:35:32.333Z,5.17
2019-01-17T04:36:31.982Z,5.17
2019-01-17T04:37:31.951Z,5.20
2019-01-17T04:38:31.943Z,5.25
2019-01-17T04:39:31.904Z,5.15
2019-01-17T04:40:32.344Z,5.25
2019-01-17T04:41:31.814Z,5.26
2019-01-17T04:42:31.790Z,5.33
2019-01-17T04:43:31.795Z,5.32
2019-01-17T04:44:31.726Z,5.33
2019-01-17T04:45:31.692Z,5.29
2019-01-17T04:46:31.826Z,5.35
2019-01-17T04:47:31.627Z,5.29
2019-01-17T04:48:31.588Z,5.26
2019-01-17T04:49:31.570Z,5.29
2019-01-17T04:50:32.260Z,5.33
2019-01-17T04:51:31.536Z,5.35
2019-01-17T04:52:31.453Z,5.38
2019-01-17T04:53:31.424Z,5.38
2019-01-17T04:54:32.262Z,5.38
2019-01-17T04:55:31.404Z,5.44
2019-01-17T04:56:31.382Z,5.43
2019-01-17T04:57:31.287Z,5.47
2019-01-17T04:58:31.263Z,5.44
2019-01-17T04:59:31.762Z,5.47
2019-01-17T05:00:31.191Z,5.41
2019-01-17T05:01:31.200Z,5.44
2019-01-17T05:02:31.165Z,5.51
2019-01-17T05:03:31.761Z,5.47
2019-01-17T05:04:31.061Z,5.56
2019-01-17T05:05:31.027Z,5.43
2019-01-17T05:06:30.991Z,5.56
2019-01-17T05:07:31.006Z,5.53
2019-01-17T05:08:31.311Z,5.53
2019-01-17T05:09:30.892Z,5.53
2019-01-17T05:10:30.930Z,5.53
2019-01-17T05:11:30.826Z,5.53
2019-01-17T05:12:30.858Z,5.54
2019-01-17T05:13:31.262Z,5.47
2019-01-17T05:14:30.731Z,5.54
2019-01-17T05:15:30.696Z,5.53
2019-01-17T05:16:30.662Z,5.50
2019-01-17T05:17:30.686Z,5.50
2019-01-17T05:18:30.663Z,5.56
2019-01-17T05:19:30.561Z,5.50
2019-01-17T05:20:30.539Z,5.59
2019-01-17T05:21:31.271Z,5.54
2019-01-17T05:22:30.470Z,5.65
2019-01-17T05:23:30.483Z,5.61
2019-01-17T05:24:31.260Z,5.61
2019-01-17T05:25:30.363Z,5.59
2019-01-17T05:26:30.404Z,5.59
2019-01-17T05:27:30.301Z,5.66
2019-01-17T05:28:30.265Z,5.65
2019-01-17T05:29:30.234Z,5.66
2019-01-17T05:30:30.198Z,5.66
2019-01-17T05:31:30.211Z,5.72
2019-01-17T05:32:36.497Z,5.68
2019-01-17T05:33:30.149Z,5.65
2019-01-17T05:34:30.078Z,5.71
2019-01-17T05:35:30.054Z,5.65
2019-01-17T05:36:30.005Z,5.69
2019-01-17T05:37:29.973Z,5.66
2019-01-17T05:38:29.980Z,5.64
2019-01-17T05:39:29.939Z,5.66
2019-01-17T05:40:29.872Z,5.75
2019-01-17T05:41:29.837Z,5.69
2019-01-17T05:42:29.803Z,5.72
2019-01-17T05:43:29.775Z,5.76
2019-01-17T05:44:29.783Z,5.75
2019-01-17T05:45:29.757Z,5.68
2019-01-17T05:46:29.672Z,5.73
2019-01-17T05:47:29.638Z,5.76
2019-01-17T05:48:29.612Z,5.75
2019-01-17T05:49:29.574Z,5.72
2019-01-17T05:50:29.585Z,5.76
2019-01-17T05:51:29.508Z,5.75
2019-01-17T05:52:29.472Z,5.79
2019-01-17T05:53:29.443Z,5.71
2019-01-17T05:54:29.408Z,5.75
2019-01-17T05:55:29.426Z,5.75
2019-01-17T05:56:29.352Z,5.73
2019-01-17T05:57:29.313Z,5.80
2019-01-17T05:58:29.318Z,5.71
2019-01-17T05:59:29.251Z,5.66
2019-01-17T06:00:29.258Z,5.73
2019-01-17T06:01:29.186Z,5.69
2019-01-17T06:02:29.159Z,5.65
2019-01-17T06:03:29.113Z,5.66
2019-01-17T06:04:29.140Z,5.66
2019-01-17T06:05:29.052Z,5.69
2019-01-17T06:06:32.954Z,5.71
2019-01-17T06:07:28.983Z,5.68
2019-01-17T06:08:28.948Z,5.68
2019-01-17T06:09:29.013Z,5.57
2019-01-17T06:10:28.887Z,5.62
2019-01-17T06:11:28.846Z,5.68
2019-01-17T06:12:28.814Z,5.64
2019-01-17T06:13:28.790Z,5.62
2019-01-17T06:14:28.796Z,5.68
2019-01-17T06:15:28.725Z,5.62
2019-01-17T06:16:28.683Z,5.65
2019-01-17T06:17:28.654Z,5.64
2019-01-17T06:18:28.616Z,5.57
2019-01-17T06:19:28.637Z,5.64
2019-01-17T06:20:28.554Z,5.62
2019-01-17T06:21:28.524Z,5.62
2019-01-17T06:22:28.482Z,5.57
2019-01-17T06:23:28.456Z,5.59
2019-01-17T06:24:28.469Z,5.53
2019-01-17T06:25:28.464Z,5.65
2019-01-17T06:26:28.400Z,5.64
2019-01-17T06:27:28.389Z,5.57
2019-01-17T06:28:28.365Z,5.57
2019-01-17T06:29:28.270Z,5.59
2019-01-17T06:30:28.228Z,5.57
2019-01-17T06:31:28.189Z,5.50
2019-01-17T06:32:28.156Z,5.53
2019-01-17T06:33:28.193Z,5.68
2019-01-17T06:34:28.091Z,5.54
2019-01-17T06:35:28.056Z,5.56
2019-01-17T06:36:28.350Z,5.56
2019-01-17T06:37:28.026Z,5.54
2019-01-17T06:38:28.086Z,5.56
2019-01-17T06:39:28.008Z,5.54
2019-01-17T06:40:27.963Z,5.56
2019-01-17T06:41:27.912Z,5.56
2019-01-17T06:42:27.827Z,5.62
2019-01-17T06:43:28.367Z,5.65
2019-01-17T06:44:27.754Z,5.65
2019-01-17T06:45:27.767Z,5.61
2019-01-17T06:46:27.732Z,5.57
2019-01-17T06:47:27.669Z,5.66
2019-01-17T06:48:27.633Z,5.62
2019-01-17T06:49:27.597Z,5.51
2019-01-17T06:50:27.561Z,5.54
2019-01-17T06:51:27.584Z,5.56
2019-01-17T06:52:27.502Z,5.65
2019-01-17T06:53:27.462Z,5.65
2019-01-17T06:54:27.427Z,5.59
2019-01-17T06:55:27.443Z,5.62
2019-01-17T06:56:27.361Z,5.61
2019-01-17T06:57:27.381Z,5.54
2019-01-17T06:58:27.296Z,5.61
2019-01-17T06:59:27.313Z,5.54
2019-01-17T07:00:27.236Z,5.65
2019-01-17T07:01:27.206Z,5.53
2019-01-17T07:02:27.774Z,5.65
2019-01-17T07:03:27.134Z,5.54
2019-01-17T07:04:27.164Z,5.59
2019-01-17T07:05:27.072Z,5.61
2019-01-17T07:06:27.078Z,5.61
2019-01-17T07:07:27.006Z,5.59
2019-01-17T07:08:27.780Z,5.56
2019-01-17T07:09:26.976Z,5.59
2019-01-17T07:10:26.901Z,5.48
2019-01-17T07:11:26.865Z,5.50
2019-01-17T07:12:26.870Z,5.56
2019-01-17T07:13:26.798Z,5.54
2019-01-17T07:14:26.817Z,5.51
2019-01-17T07:15:26.738Z,5.50
2019-01-17T07:16:26.700Z,5.50
2019-01-17T07:17:26.744Z,5.54
2019-01-17T07:18:26.636Z,5.39
2019-01-17T07:19:26.605Z,5.41
2019-01-17T07:20:26.575Z,5.47
2019-01-17T07:21:27.276Z,5.50
2019-01-17T07:22:26.568Z,5.50
2019-01-17T07:23:26.475Z,5.50
2019-01-17T07:24:26.445Z,5.53
2019-01-17T07:25:26.411Z,5.50
2019-01-17T07:26:26.376Z,5.51
2019-01-17T07:27:26.433Z,5.47
2019-01-17T07:28:26.307Z,5.53
2019-01-17T07:29:26.274Z,5.50
2019-01-17T07:30:26.782Z,5.54
2019-01-17T07:31:26.257Z,5.53
2019-01-17T07:32:26.221Z,5.57
2019-01-17T07:33:26.143Z,5.62
2019-01-17T07:34:26.111Z,5.62
2019-01-17T07:35:26.777Z,5.65
2019-01-17T07:36:26.045Z,5.66
2019-01-17T07:37:26.057Z,5.61
2019-01-17T07:38:25.979Z,5.51
2019-01-17T07:39:26.001Z,5.59
2019-01-17T07:40:25.916Z,5.54
2019-01-17T07:41:25.899Z,5.62
2019-01-17T07:42:25.893Z,5.65
2019-01-17T07:43:25.816Z,5.66
2019-01-17T07:44:25.852Z,5.65
2019-01-17T07:45:25.750Z,5.72
2019-01-17T07:46:25.711Z,5.71
2019-01-17T07:47:25.744Z,5.79
2019-01-17T07:48:25.649Z,5.80
2019-01-17T07:49:25.621Z,5.73
2019-01-17T07:50:26.279Z,5.73
2019-01-17T07:51:25.559Z,5.72
2019-01-17T07:52:25.579Z,5.75
2019-01-17T07:53:25.481Z,5.79
2019-01-17T07:54:25.561Z,5.72
2019-01-17T07:55:26.284Z,5.72
2019-01-17T07:56:25.387Z,5.76
2019-01-17T07:57:25.403Z,5.79
2019-01-17T07:58:25.322Z,5.75
2019-01-17T07:59:25.285Z,5.66
2019-01-17T08:00:25.252Z,5.83
2019-01-17T08:01:25.224Z,5.75
2019-01-17T08:02:25.227Z,5.73
2019-01-17T08:03:25.198Z,5.79
2019-01-17T08:04:25.120Z,5.71
2019-01-17T08:05:25.088Z,5.80
2019-01-17T08:06:25.054Z,5.76
2019-01-17T08:07:25.032Z,5.86
2019-01-17T08:08:25.041Z,5.86
2019-01-17T08:09:24.965Z,5.75
2019-01-17T08:10:24.924Z,5.73
2019-01-17T08:11:24.897Z,5.69
2019-01-17T08:12:24.859Z,5.68
2019-01-17T08:13:24.891Z,5.62
2019-01-17T08:14:24.822Z,5.51
2019-01-17T08:15:24.763Z,5.50
2019-01-17T08:16:24.729Z,5.43
2019-01-17T08:17:24.694Z,5.43
2019-01-17T08:18:24.705Z,5.46
2019-01-17T08:19:24.683Z,5.44
2019-01-17T08:20:24.601Z,5.38
2019-01-17T08:21:24.562Z,5.36
2019-01-17T08:22:24.598Z,5.35
2019-01-17T08:23:24.533Z,5.38
2019-01-17T08:24:24.523Z,5.41
2019-01-17T08:25:24.436Z,5.47
2019-01-17T08:26:24.394Z,5.43
2019-01-17T08:27:24.367Z,5.48
2019-01-17T08:28:24.339Z,5.48
2019-01-17T08:29:24.361Z,5.51
2019-01-17T08:30:24.266Z,5.56
2019-01-17T08:31:24.231Z,5.59
2019-01-17T08:32:24.204Z,5.66
2019-01-17T08:33:24.164Z,5.62
2019-01-17T08:34:28.306Z,5.61
2019-01-17T08:35:24.163Z,5.73
2019-01-17T08:36:24.068Z,5.73
2019-01-17T08:37:24.038Z,5.69
2019-01-17T08:38:24.004Z,5.79
2019-01-17T08:39:23.979Z,5.83
2019-01-17T08:40:24.341Z,5.83
2019-01-17T08:41:23.907Z,5.87
2019-01-17T08:42:23.870Z,5.91
2019-01-17T08:43:44.840Z,5.93
2019-01-17T08:44:23.809Z,5.83
2019-01-17T08:45:23.844Z,5.89
2019-01-17T08:46:23.743Z,5.90
2019-01-17T08:47:23.714Z,5.91
2019-01-17T08:48:23.688Z,6.02
2019-01-17T08:49:23.641Z,5.97
2019-01-17T08:50:23.854Z,5.98
2019-01-17T08:51:23.580Z,5.84
2019-01-17T08:52:23.546Z,5.83
2019-01-17T08:53:23.515Z,5.91
2019-01-17T08:54:23.569Z,5.86
2019-01-17T08:55:23.452Z,5.86
2019-01-17T08:56:23.432Z,5.90
2019-01-17T08:57:23.392Z,5.93
2019-01-17T08:58:23.354Z,5.91
2019-01-17T08:59:23.364Z,5.94
2019-01-17T09:00:23.330Z,5.94
2019-01-17T09:01:23.331Z,5.94
2019-01-17T09:02:23.243Z,5.99
2019-01-17T09:03:23.190Z,6.05
2019-01-17T09:04:23.155Z,5.99
2019-01-17T09:05:23.167Z,5.86
2019-01-17T09:06:23.097Z,6.04
2019-01-17T09:07:23.062Z,6.05
2019-01-17T09:08:23.025Z,6.01
2019-01-17T09:09:23.037Z,5.97
2019-01-17T09:10:23.800Z,6.04
2019-01-17T09:11:22.953Z,6.04
2019-01-17T09:12:22.898Z,6.12
2019-01-17T09:13:22.862Z,6.27
2019-01-17T09:14:22.878Z,6.14
2019-01-17T09:15:23.789Z,6.27
2019-01-17T09:16:22.768Z,6.26
2019-01-17T09:17:22.735Z,6.19
2019-01-17T09:18:22.744Z,6.28
2019-01-17T09:19:22.726Z,6.26
2019-01-17T09:20:22.694Z,6.22
2019-01-17T09:21:22.652Z,6.20
2019-01-17T09:22:22.623Z,6.30
2019-01-17T09:23:22.546Z,6.17
2019-01-17T09:24:22.518Z,6.22
2019-01-17T09:25:22.472Z,6.22
2019-01-17T09:26:22.440Z,6.28
2019-01-17T09:27:22.455Z,6.27
2019-01-17T09:28:22.383Z,6.20
2019-01-17T09:29:22.344Z,6.27
2019-01-17T09:30:22.312Z,6.31
2019-01-17T09:31:22.287Z,6.36
2019-01-17T09:32:22.309Z,6.49
2019-01-17T09:33:22.221Z,6.41
2019-01-17T09:34:22.192Z,6.46
2019-01-17T09:35:22.162Z,6.49
2019-01-17T09:36:22.166Z,6.52
2019-01-17T09:37:22.142Z,6.54
2019-01-17T09:38:22.057Z,6.51
2019-01-17T09:39:22.028Z,6.63
2019-01-17T09:40:21.993Z,6.69
2019-01-17T09:41:22.005Z,6.60
2019-01-17T09:42:21.982Z,7.11
2019-01-17T09:43:21.953Z,7.14
2019-01-17T09:44:21.866Z,6.97
2019-01-17T09:45:21.837Z,7.07
2019-01-17T09:46:21.804Z,6.99
2019-01-17T09:47:21.779Z,7.02
2019-01-17T09:48:21.785Z,7.13
2019-01-17T09:49:21.706Z,7.07
2019-01-17T09:50:21.674Z,6.99
2019-01-17T09:51:21.646Z,6.92
2019-01-17T09:52:21.615Z,6.88
2019-01-17T09:53:21.625Z,6.89
2019-01-17T09:54:21.548Z,6.89
2019-01-17T09:55:21.515Z,6.82
2019-01-17T09:56:21.487Z,6.81
2019-01-17T09:57:21.461Z,6.78
2019-01-17T09:58:21.485Z,6.72
2019-01-17T09:59:21.399Z,6.82
2019-01-17T10:00:21.367Z,6.93
2019-01-17T10:01:21.339Z,6.81
2019-01-17T10:02:21.303Z,6.88
2019-01-17T10:03:21.314Z,6.79
2019-01-17T10:04:22.096Z,6.84
2019-01-17T10:05:21.201Z,6.75
2019-01-17T10:06:21.819Z,6.81
2019-01-17T10:07:21.147Z,6.85
2019-01-17T10:08:21.162Z,6.82
2019-01-17T10:09:21.153Z,6.82
2019-01-17T10:10:21.063Z,6.69
2019-01-17T10:11:21.024Z,6.70
2019-01-17T10:12:20.983Z,6.69
2019-01-17T10:13:22.388Z,6.60
2019-01-17T10:14:20.969Z,6.72
2019-01-17T10:15:20.895Z,6.70
2019-01-17T10:16:20.859Z,6.59
2019-01-17T10:17:20.864Z,6.77
2019-01-17T10:18:20.857Z,6.82
2019-01-17T10:19:20.814Z,6.99
2019-01-17T10:20:20.731Z,7.02
2019-01-17T10:21:20.700Z,7.05
2019-01-17T10:22:20.713Z,7.05
2019-01-17T10:23:21.305Z,6.97
2019-01-17T10:24:20.666Z,6.89
2019-01-17T10:25:20.571Z,6.84
2019-01-17T10:26:21.244Z,6.95
2019-01-17T10:27:20.557Z,6.87
2019-01-17T10:28:21.517Z,6.88
2019-01-17T10:29:21.301Z,6.89
2019-01-17T10:30:20.462Z,7.10
2019-01-17T10:31:20.391Z,7.10
2019-01-17T10:32:20.355Z,7.00
2019-01-17T10:33:20.332Z,7.05
2019-01-17T10:34:20.364Z,7.00
2019-01-17T10:35:20.269Z,6.96
2019-01-17T10:36:20.226Z,7.02
2019-01-17T10:37:20.262Z,6.92
2019-01-17T10:38:20.176Z,6.92
2019-01-17T10:39:20.144Z,6.96
2019-01-17T10:40:20.102Z,6.95
2019-01-17T10:41:20.121Z,6.92
2019-01-17T10:42:20.044Z,6.81
2019-01-17T10:43:20.802Z,6.82
2019-01-17T10:44:19.982Z,6.81
2019-01-17T10:45:19.950Z,6.74
2019-01-17T10:46:20.360Z,6.84
2019-01-17T10:47:19.885Z,6.81
2019-01-17T10:48:19.857Z,6.82
2019-01-17T10:49:19.872Z,6.66
2019-01-17T10:50:19.785Z,6.62
2019-01-17T10:51:19.758Z,6.63
2019-01-17T10:52:19.769Z,6.66
2019-01-17T10:53:19.695Z,6.75
2019-01-17T10:54:19.661Z,6.72
2019-01-17T10:55:19.632Z,6.82
2019-01-17T10:56:19.601Z,6.84
2019-01-17T10:57:19.606Z,6.82
2019-01-17T10:58:19.542Z,6.82
2019-01-17T10:59:19.500Z,6.88
2019-01-17T11:00:19.518Z,6.81
2019-01-17T11:01:19.439Z,6.92
2019-01-17T11:02:19.406Z,6.95
2019-01-17T11:03:19.382Z,6.92
2019-01-17T11:04:19.389Z,7.00
2019-01-17T11:05:19.310Z,7.00
2019-01-17T11:06:19.278Z,6.99
2019-01-17T11:07:19.260Z,7.06
2019-01-17T11:08:19.266Z,7.02
2019-01-17T11:09:19.183Z,6.85
2019-01-17T11:10:19.177Z,6.89
2019-01-17T11:11:19.168Z,7.05
2019-01-17T11:12:19.091Z,7.07
2019-01-17T11:13:19.059Z,7.05
2019-01-17T11:14:19.031Z,7.02
2019-01-17T11:15:19.033Z,7.11
2019-01-17T11:16:18.966Z,7.11
2019-01-17T11:17:18.939Z,7.17
2019-01-17T11:18:18.905Z,7.17
2019-01-17T11:19:18.895Z,7.14
2019-01-17T11:20:18.915Z,7.10
2019-01-17T11:21:18.834Z,7.13
2019-01-17T11:22:18.777Z,7.06
2019-01-17T11:23:18.749Z,7.20
2019-01-17T11:24:18.728Z,7.25
2019-01-17T11:25:18.726Z,7.32
2019-01-17T11:26:18.741Z,7.25
2019-01-17T11:27:18.619Z,7.29
2019-01-17T11:28:18.591Z,7.21
2019-01-17T11:29:18.651Z,7.23
2019-01-17T11:30:18.525Z,7.33
2019-01-17T11:31:18.498Z,7.25
2019-01-17T11:32:18.469Z,7.15
2019-01-17T11:33:18.435Z,7.25
2019-01-17T11:34:18.447Z,7.38
2019-01-17T11:35:18.372Z,7.47
2019-01-17T11:36:18.385Z,7.45
2019-01-17T11:37:18.308Z,7.42
2019-01-17T11:38:18.817Z,7.43
2019-01-17T11:39:18.251Z,7.57
2019-01-17T11:40:18.213Z,7.57
2019-01-17T11:41:18.242Z,7.58
2019-01-17T11:42:18.154Z,7.47
2019-01-17T11:43:25.187Z,7.40
2019-01-17T11:44:18.089Z,7.45
2019-01-17T11:45:18.157Z,7.45
2019-01-17T11:46:18.092Z,7.42
2019-01-17T11:47:18.009Z,7.42
2019-01-17T11:48:18.013Z,7.58
2019-01-17T11:49:17.937Z,7.47
2019-01-17T11:50:18.839Z,7.56
2019-01-17T11:51:17.875Z,7.56
2019-01-17T11:52:17.843Z,7.63
2019-01-17T11:53:17.855Z,7.58
2019-01-17T11:54:17.800Z,7.56
2019-01-17T11:55:18.331Z,7.57
2019-01-17T11:56:17.719Z,7.72
2019-01-17T11:57:17.705Z,7.75
2019-01-17T11:58:18.240Z,7.73
2019-01-17T11:59:17.630Z,7.93
2019-01-17T12:00:17.594Z,8.00
2019-01-17T12:01:17.570Z,8.10
2019-01-17T12:02:17.537Z,8.13
2019-01-17T12:03:17.549Z,8.15
2019-01-17T12:04:17.475Z,8.16
2019-01-17T12:05:17.500Z,8.05
2019-01-17T12:06:17.419Z,8.13
2019-01-17T12:07:17.382Z,8.31
2019-01-17T12:08:17.348Z,8.31
2019-01-17T12:09:17.320Z,8.26
2019-01-17T12:10:17.350Z,8.26
2019-01-17T12:11:17.268Z,8.31
2019-01-17T12:12:17.228Z,8.15
2019-01-17T12:13:17.479Z,8.12
2019-01-17T12:14:17.167Z,8.15
2019-01-17T12:15:17.181Z,8.10
2019-01-17T12:16:17.146Z,8.09
2019-01-17T12:17:17.137Z,8.15
2019-01-17T12:18:17.066Z,8.19
2019-01-17T12:19:17.036Z,8.10
2019-01-17T12:20:16.999Z,8.15
2019-01-17T12:21:16.954Z,8.12
2019-01-17T12:22:16.977Z,8.06
2019-01-17T12:23:16.898Z,8.24
2019-01-17T12:24:16.904Z,8.41
2019-01-17T12:25:16.843Z,8.31
2019-01-17T12:26:16.804Z,8.30
2019-01-17T12:27:16.780Z,8.44
2019-01-17T12:28:16.806Z,8.51
2019-01-17T12:29:16.711Z,8.51
2019-01-17T12:30:16.724Z,8.58
2019-01-17T12:31:16.654Z,8.53
2019-01-17T12:32:16.627Z,8.48
2019-01-17T12:33:16.640Z,8.33
2019-01-17T12:34:16.607Z,8.05
2019-01-17T12:35:16.530Z,8.15
2019-01-17T12:36:16.553Z,8.23
2019-01-17T12:37:16.467Z,8.24
2019-01-17T12:38:16.441Z,8.31
2019-01-17T12:39:16.409Z,8.34
2019-01-17T12:40:16.425Z,8.33
2019-01-17T12:41:16.359Z,8.33
2019-01-17T12:42:16.324Z,8.30
2019-01-17T12:43:16.297Z,8.12
2019-01-17T12:44:16.256Z,8.08
2019-01-17T12:45:16.272Z,8.12
2019-01-17T12:46:16.241Z,8.15
2019-01-17T12:47:16.167Z,8.15
2019-01-17T12:48:16.137Z,8.06
2019-01-17T12:49:16.132Z,8.10
2019-01-17T12:50:16.082Z,7.97
2019-01-17T12:51:16.098Z,7.85
2019-01-17T12:52:16.011Z,7.95
2019-01-17T12:53:16.037Z,7.80
2019-01-17T12:54:15.964Z,7.77
2019-01-17T12:55:15.927Z,7.90
2019-01-17T12:56:15.950Z,7.82
2019-01-17T12:57:15.872Z,7.85
2019-01-17T12:58:15.832Z,7.83
2019-01-17T12:59:15.799Z,7.70
2019-01-17T13:00:15.765Z,7.70
2019-01-17T13:01:16.127Z,7.69
2019-01-17T13:02:15.729Z,7.70
2019-01-17T13:03:15.676Z,7.72
2019-01-17T13:04:15.689Z,7.70
2019-01-17T13:05:15.619Z,7.69
2019-01-17T13:06:15.697Z,7.75
2019-01-17T13:07:15.607Z,7.82
2019-01-17T13:08:15.520Z,7.80
2019-01-17T13:09:15.496Z,7.80
2019-01-17T13:10:15.457Z,7.76
2019-01-17T13:11:15.429Z,7.85
2019-01-17T13:12:15.908Z,7.82
2019-01-17T13:13:15.366Z,7.83
2019-01-17T13:14:15.339Z,7.85
2019-01-17T13:15:15.309Z,7.85
2019-01-17T13:16:15.274Z,7.79
2019-01-17T13:17:15.281Z,7.94
2019-01-17T13:18:15.257Z,7.85